createdAt,value
2022-10-22T00:02:24.306Z,63.29
2022-10-22T00:04:51.455Z,64.22
2022-10-22T00:07:19.480Z,64.98
2022-10-22T00:09:47.064Z,65.37
2022-10-22T00:12:15.732Z,64.21
2022-10-22T00:14:43.300Z,63.21
2022-10-22T00:17:11.561Z,63.42
2022-10-22T00:19:39.386Z,62.72
2022-10-22T00:22:07.095Z,62.34
2022-10-22T00:24:35.699Z,61.57
2022-10-22T00:27:03.065Z,61.75
2022-10-22T00:29:30.997Z,61.87
2022-10-22T00:31:57.730Z,62.43
2022-10-22T00:34:24.996Z,62.73
2022-10-22T00:36:52.131Z,62.42
2022-10-22T00:39:21.227Z,61.98
2022-10-22T00:41:50.104Z,62.61
2022-10-22T00:45:14.009Z,62.71
2022-10-22T00:47:49.977Z,62.72
2022-10-22T00:50:22.272Z,62.80
2022-10-22T00:52:50.033Z,62.41
2022-10-22T00:55:18.474Z,62.17
2022-10-22T00:57:46.447Z,62.76
2022-10-22T01:00:13.630Z,62.83
2022-10-22T01:02:40.510Z,62.39
2022-10-22T01:05:07.663Z,62.34
2022-10-22T01:07:40.891Z,62.62
2022-10-22T01:10:18.023Z,62.68
2022-10-22T01:12:58.030Z,63.05
2022-10-22T01:15:30.664Z,62.50
2022-10-22T01:18:00.433Z,62.64
2022-10-22T01:20:56.397Z,62.77
2022-10-22T01:23:48.242Z,62.70
2022-10-22T01:29:12.273Z,63.78
2022-10-22T01:31:44.975Z,64.09
2022-10-22T01:34:14.254Z,64.03
2022-10-22T01:36:42.188Z,63.98
2022-10-22T01:39:10.375Z,63.26
2022-10-22T01:41:39.772Z,63.01
2022-10-22T01:44:07.053Z,63.50
2022-10-22T01:46:34.272Z,63.90
2022-10-22T01:49:24.997Z,63.74
2022-10-22T01:52:06.936Z,63.82
2022-10-22T01:54:36.361Z,64.66
2022-10-22T01:57:16.867Z,63.64
2022-10-22T02:00:05.650Z,64.06
2022-10-22T02:02:58.641Z,64.23
2022-10-22T02:05:41.767Z,63.91
2022-10-22T02:08:14.985Z,63.50
2022-10-22T02:10:45.468Z,63.61
2022-10-22T02:13:19.426Z,63.82
2022-10-22T02:15:48.877Z,64.56
2022-10-22T02:18:18.887Z,66.03
2022-10-22T02:20:45.821Z,64.96
2022-10-22T02:23:13.251Z,64.98
2022-10-22T02:25:42.753Z,64.29
2022-10-22T02:28:24.007Z,64.19
2022-10-22T02:31:00.825Z,63.89
2022-10-22T02:33:35.946Z,63.69
2022-10-22T02:36:04.428Z,63.95
2022-10-22T02:38:33.691Z,64.95
2022-10-22T02:41:00.587Z,64.25
2022-10-22T02:43:29.044Z,64.45
2022-10-22T02:45:55.717Z,64.13
2022-10-22T02:48:22.516Z,63.89
2022-10-22T02:50:49.253Z,64.67
2022-10-22T02:53:15.957Z,65.53
2022-10-22T02:55:42.633Z,64.29
2022-10-22T02:58:09.146Z,64.29
2022-10-22T03:00:35.862Z,64.52
2022-10-22T03:03:02.511Z,64.72
2022-10-22T03:05:29.025Z,65.39
2022-10-22T03:07:56.061Z,65.38
2022-10-22T03:10:22.781Z,65.30
2022-10-22T03:12:49.302Z,66.71
2022-10-22T03:15:16.046Z,67.56
2022-10-22T03:17:42.922Z,67.21
2022-10-22T03:20:09.985Z,65.71
2022-10-22T03:22:40.806Z,65.62
2022-10-22T03:25:12.437Z,64.99
2022-10-22T03:27:41.257Z,64.91
2022-10-22T03:30:09.109Z,64.24
2022-10-22T03:32:35.706Z,63.92
2022-10-22T03:35:02.345Z,63.96
2022-10-22T03:37:30.243Z,64.16
2022-10-22T03:39:57.348Z,63.68
2022-10-22T03:42:25.161Z,64.72
2022-10-22T03:44:52.685Z,64.62
2022-10-22T03:47:19.398Z,64.85
2022-10-22T03:49:46.093Z,64.66
2022-10-22T03:52:15.145Z,64.74
2022-10-22T03:54:42.825Z,65.62
2022-10-22T03:57:10.498Z,65.64
2022-10-22T03:59:39.412Z,63.97
2022-10-22T04:02:07.460Z,63.85
2022-10-22T04:04:34.235Z,64.32
2022-10-22T04:07:00.876Z,65.24
2022-10-22T04:09:27.395Z,66.33
2022-10-22T04:11:54.098Z,67.42
2022-10-22T04:14:20.770Z,66.44
2022-10-22T04:16:47.393Z,65.84
2022-10-22T04:19:14.062Z,65.40
2022-10-22T04:21:40.725Z,65.37
2022-10-22T04:24:07.326Z,65.47
2022-10-22T04:26:34.122Z,67.13
2022-10-22T04:29:00.947Z,68.14
2022-10-22T04:31:27.985Z,66.29
2022-10-22T04:33:57.011Z,65.66
2022-10-22T04:36:25.084Z,64.94
2022-10-22T04:38:57.989Z,66.17
2022-10-22T04:41:30.565Z,66.22
2022-10-22T04:43:58.061Z,66.33
2022-10-22T04:46:27.347Z,66.62
2022-10-22T04:48:55.194Z,66.92
2022-10-22T04:51:26.633Z,67.22
2022-10-22T04:53:53.853Z,66.83
2022-10-22T04:56:24.992Z,67.28
2022-10-22T04:59:04.829Z,67.29
2022-10-22T05:01:42.806Z,66.40
2022-10-22T05:04:17.156Z,67.07
2022-10-22T05:06:45.175Z,68.08
2022-10-22T05:09:15.073Z,69.36
2022-10-22T05:11:48.466Z,68.38
2022-10-22T05:14:18.303Z,66.13
2022-10-22T05:16:48.497Z,65.29
2022-10-22T05:19:25.301Z,65.25
2022-10-22T05:21:53.906Z,65.50
2022-10-22T05:24:21.114Z,66.84
2022-10-22T05:26:56.072Z,66.60
2022-10-22T05:29:23.663Z,66.31
2022-10-22T05:31:50.801Z,66.29
2022-10-22T05:34:20.072Z,66.71
2022-10-22T05:36:48.710Z,66.17
2022-10-22T05:39:15.498Z,67.51
2022-10-22T05:41:42.109Z,67.75
2022-10-22T05:44:11.425Z,69.41
2022-10-22T05:46:38.127Z,68.43
2022-10-22T05:49:06.482Z,68.61
2022-10-22T05:51:35.710Z,68.54
2022-10-22T05:54:08.128Z,69.07
2022-10-22T05:56:35.662Z,70.18
2022-10-22T06:01:32.268Z,69.59
2022-10-22T06:04:01.781Z,69.81
2022-10-22T06:06:35.935Z,70.98
2022-10-22T06:09:13.446Z,70.51
2022-10-22T06:11:40.309Z,70.81
2022-10-22T06:14:07.141Z,71.42
2022-10-22T06:16:33.876Z,71.38
2022-10-22T06:19:04.105Z,71.41
2022-10-22T06:21:32.285Z,71.52
2022-10-22T06:24:00.762Z,71.72
2022-10-22T06:26:28.784Z,71.61
2022-10-22T06:28:56.767Z,71.61
2022-10-22T06:31:25.219Z,72.76
2022-10-22T06:33:52.174Z,72.22
2022-10-22T06:36:22.547Z,73.08
2022-10-22T06:38:54.038Z,72.89
2022-10-22T06:41:24.259Z,73.61
2022-10-22T06:43:54.561Z,73.17
2022-10-22T06:46:22.335Z,72.85
2022-10-22T06:48:51.015Z,74.00
2022-10-22T06:51:18.381Z,73.20
2022-10-22T06:53:45.806Z,73.63
2022-10-22T06:56:15.169Z,73.37
2022-10-22T06:58:42.102Z,74.04
2022-10-22T07:01:14.070Z,73.86
2022-10-22T07:03:41.682Z,74.40
2022-10-22T07:06:11.803Z,74.51
2022-10-22T07:08:39.469Z,74.76
2022-10-22T07:11:10.468Z,74.36
2022-10-22T07:13:37.850Z,74.12
2022-10-22T07:16:06.542Z,73.80
2022-10-22T07:18:34.952Z,73.14
2022-10-22T07:21:02.346Z,71.54
2022-10-22T07:23:30.502Z,70.44
2022-10-22T07:28:30.026Z,70.34
2022-10-22T07:30:56.797Z,71.38
2022-10-22T07:33:23.517Z,68.22
2022-10-22T07:35:50.217Z,68.95
2022-10-22T07:38:16.892Z,70.69
2022-10-22T07:40:43.552Z,69.50
2022-10-22T07:43:10.233Z,71.18
2022-10-22T07:45:37.004Z,73.15
2022-10-22T07:48:03.814Z,71.98
2022-10-22T07:50:30.673Z,71.36
2022-10-22T07:52:58.274Z,71.02
2022-10-22T07:55:26.559Z,71.53
2022-10-22T07:57:53.618Z,71.99
2022-10-22T08:00:23.188Z,72.58
2022-10-22T08:02:52.494Z,72.73
2022-10-22T08:05:19.728Z,73.50
2022-10-22T08:07:46.447Z,72.07
2022-10-22T08:10:14.198Z,71.63
2022-10-22T08:12:41.304Z,72.60
2022-10-22T08:15:09.486Z,72.55
2022-10-22T08:17:36.434Z,73.14
2022-10-22T08:20:04.479Z,74.30
2022-10-22T08:22:31.633Z,74.65
2022-10-22T08:24:59.126Z,73.82
2022-10-22T08:27:26.117Z,73.94
2022-10-22T08:29:52.730Z,74.18
2022-10-22T08:32:19.621Z,74.03
2022-10-22T08:34:46.200Z,74.10
2022-10-22T08:37:14.439Z,73.61
2022-10-22T08:39:41.668Z,74.55
2022-10-22T08:42:28.679Z,74.20
2022-10-22T08:45:31.244Z,74.69
2022-10-22T08:48:16.208Z,74.22
2022-10-22T08:50:49.588Z,72.73
2022-10-22T08:53:22.127Z,72.61
2022-10-22T08:55:49.954Z,73.64
2022-10-22T08:58:35.532Z,72.81
2022-10-22T09:01:09.908Z,72.20
2022-10-22T09:03:43.972Z,72.09
2022-10-22T09:06:16.936Z,72.22
2022-10-22T09:08:45.842Z,73.46
2022-10-22T09:11:12.636Z,73.36
2022-10-22T09:13:42.310Z,73.38
2022-10-22T09:16:17.692Z,72.61
2022-10-22T09:18:52.155Z,73.01
2022-10-22T09:21:26.116Z,73.89
2022-10-22T09:24:12.720Z,74.12
2022-10-22T09:26:42.280Z,75.41
2022-10-22T09:29:18.363Z,74.64
2022-10-22T09:31:45.244Z,74.33
2022-10-22T09:34:15.737Z,73.54
2022-10-22T09:36:42.388Z,72.59
2022-10-22T09:39:35.560Z,73.36
2022-10-22T09:42:02.699Z,73.78
2022-10-22T09:44:33.901Z,73.44
2022-10-22T09:47:04.536Z,74.20
2022-10-22T09:49:34.881Z,73.89
2022-10-22T09:52:02.322Z,74.64
2022-10-22T09:54:32.093Z,74.52
2022-10-22T09:57:17.559Z,74.21
2022-10-22T09:59:48.280Z,73.38
2022-10-22T10:02:43.982Z,72.72
2022-10-22T10:05:19.550Z,72.42
2022-10-22T10:07:49.448Z,72.67
2022-10-22T10:10:43.831Z,71.36
2022-10-22T10:13:13.864Z,72.60
2022-10-22T10:15:51.423Z,73.08
2022-10-22T10:18:34.868Z,72.91
2022-10-22T10:21:22.292Z,72.58
2022-10-22T10:24:03.473Z,72.39
2022-10-22T10:26:39.970Z,71.84
2022-10-22T10:29:44.947Z,71.86
2022-10-22T10:32:50.533Z,71.63
2022-10-22T10:35:37.042Z,71.27
2022-10-22T10:38:31.625Z,72.18
2022-10-22T10:41:27.251Z,71.87
2022-10-22T10:44:12.808Z,72.29
2022-10-22T10:47:17.121Z,72.09
2022-10-22T10:49:44.392Z,72.22
2022-10-22T10:52:30.746Z,71.42
2022-10-22T10:55:22.776Z,72.19
2022-10-22T10:58:05.412Z,72.24
2022-10-22T11:00:43.044Z,71.75
2022-10-22T11:03:20.997Z,71.21
2022-10-22T11:06:06.559Z,70.88
2022-10-22T11:08:36.560Z,69.93
2022-10-22T11:11:18.418Z,69.70
2022-10-22T11:13:57.932Z,69.64
2022-10-22T11:16:35.317Z,69.53
2022-10-22T11:19:49.725Z,69.58
2022-10-22T11:22:27.083Z,70.26
2022-10-22T11:25:35.125Z,68.96
2022-10-22T11:28:45.250Z,69.48
2022-10-22T11:31:18.660Z,68.92
2022-10-22T11:34:04.669Z,69.53
2022-10-22T11:36:33.923Z,69.76
2022-10-22T11:39:03.748Z,70.04
2022-10-22T11:41:33.127Z,68.77
2022-10-22T11:44:12.122Z,68.96
2022-10-22T11:47:09.631Z,68.30
2022-10-22T11:49:55.669Z,68.50
2022-10-22T11:52:31.469Z,68.44
2022-10-22T11:55:02.192Z,69.15
2022-10-22T11:57:37.747Z,69.24
2022-10-22T12:00:41.442Z,69.01
2022-10-22T12:03:23.727Z,67.46
2022-10-22T12:06:12.297Z,67.63
2022-10-22T12:09:05.788Z,66.58
2022-10-22T12:11:37.553Z,66.34
2022-10-22T12:14:36.099Z,66.97
2022-10-22T12:17:14.804Z,66.04
2022-10-22T12:19:49.784Z,64.72
2022-10-22T12:22:38.056Z,65.64
2022-10-22T12:25:22.332Z,66.15
2022-10-22T12:27:55.602Z,66.44
2022-10-22T12:30:33.194Z,65.81
2022-10-22T12:33:03.601Z,66.17
2022-10-22T12:35:33.988Z,65.01
2022-10-22T12:38:03.081Z,66.34
2022-10-22T12:40:33.895Z,66.27
2022-10-22T12:43:03.105Z,64.82
2022-10-22T12:45:31.926Z,64.94
2022-10-22T12:48:02.392Z,65.90
2022-10-22T12:50:38.711Z,66.04
2022-10-22T12:53:13.700Z,66.19
2022-10-22T12:55:41.295Z,66.92
2022-10-22T12:58:08.258Z,65.70
2022-10-22T13:00:35.799Z,66.07
2022-10-22T13:03:05.980Z,65.51
2022-10-22T13:05:39.068Z,67.09
2022-10-22T13:08:10.779Z,67.25
2022-10-22T13:10:48.971Z,66.51
2022-10-22T13:13:32.622Z,66.31
2022-10-22T13:16:25.162Z,65.39
2022-10-22T13:18:52.658Z,65.38
2022-10-22T13:21:38.912Z,65.18
2022-10-22T13:24:23.929Z,64.72
2022-10-22T13:26:54.210Z,64.40
2022-10-22T13:29:23.539Z,63.91
2022-10-22T13:31:52.536Z,63.95
2022-10-22T13:34:24.852Z,63.50
2022-10-22T13:36:51.568Z,62.00
2022-10-22T13:39:25.244Z,62.35
2022-10-22T13:41:51.975Z,62.72
2022-10-22T13:44:19.883Z,61.72
2022-10-22T13:46:48.621Z,61.69
2022-10-22T13:49:18.208Z,62.84
2022-10-22T13:51:45.271Z,61.81
2022-10-22T13:54:19.040Z,59.60
2022-10-22T13:56:53.377Z,59.40
2022-10-22T13:59:22.974Z,59.10
2022-10-22T14:01:51.627Z,58.99
2022-10-22T14:04:18.723Z,58.17
2022-10-22T14:06:45.450Z,57.37
2022-10-22T14:09:15.490Z,55.85
2022-10-22T14:11:43.088Z,55.74
2022-10-22T14:14:14.110Z,55.53
2022-10-22T14:16:41.651Z,55.57
2022-10-22T14:19:15.144Z,55.17
2022-10-22T14:21:42.083Z,52.94
2022-10-22T14:24:12.998Z,54.70
2022-10-22T14:26:40.612Z,54.36
2022-10-22T14:29:09.677Z,53.54
2022-10-22T14:34:16.421Z,54.34
2022-10-22T14:36:46.352Z,54.62
2022-10-22T14:39:14.082Z,54.71
2022-10-22T14:41:41.397Z,55.18
2022-10-22T14:44:12.771Z,53.15
2022-10-22T14:46:42.804Z,52.41
2022-10-22T14:49:09.881Z,51.77
2022-10-22T14:51:37.506Z,52.50
2022-10-22T14:54:04.576Z,52.13
2022-10-22T14:56:31.736Z,53.55
2022-10-22T14:58:58.729Z,53.97
2022-10-22T15:01:27.646Z,53.23
2022-10-22T15:03:54.565Z,53.13
2022-10-22T15:06:21.238Z,53.96
2022-10-22T15:08:48.150Z,53.50
2022-10-22T15:11:17.365Z,53.60
2022-10-22T15:13:44.058Z,54.00
2022-10-22T15:16:15.896Z,54.23
2022-10-22T15:18:42.689Z,55.27
2022-10-22T15:21:16.630Z,55.30
2022-10-22T15:23:43.937Z,55.50
2022-10-22T15:26:12.412Z,55.72
2022-10-22T15:28:40.072Z,56.37
2022-10-22T15:31:07.780Z,57.16
2022-10-22T15:33:34.585Z,56.44
2022-10-22T15:36:11.975Z,57.71
2022-10-22T15:38:38.838Z,58.53
2022-10-22T15:41:07.110Z,58.56
2022-10-22T15:43:34.914Z,58.91
2022-10-22T15:46:17.697Z,59.69
2022-10-22T15:48:46.412Z,59.69
2022-10-22T15:51:19.244Z,59.63
2022-10-22T15:53:53.848Z,60.47
2022-10-22T15:56:21.373Z,60.86
2022-10-22T15:58:53.444Z,60.36
2022-10-22T16:01:20.297Z,62.22
2022-10-22T16:03:47.413Z,61.03
2022-10-22T16:06:14.272Z,60.83
2022-10-22T16:08:40.985Z,60.87
2022-10-22T16:11:07.826Z,60.17
2022-10-22T16:13:36.860Z,61.50
2022-10-22T16:16:10.345Z,60.97
2022-10-22T16:18:36.975Z,61.57
2022-10-22T16:21:03.828Z,62.12
2022-10-22T16:23:30.680Z,62.94
2022-10-22T16:25:57.330Z,63.57
2022-10-22T16:28:24.049Z,63.55
2022-10-22T16:30:50.792Z,63.23
2022-10-22T16:33:17.776Z,64.00
2022-10-22T16:35:44.404Z,64.55
2022-10-22T16:38:12.331Z,65.55
2022-10-22T16:40:41.923Z,65.15
2022-10-22T16:43:08.583Z,65.75
2022-10-22T16:45:35.223Z,65.76
2022-10-22T16:48:01.887Z,65.60
2022-10-22T16:50:28.702Z,65.08
2022-10-22T16:52:55.418Z,64.90
2022-10-22T16:55:22.245Z,65.28
2022-10-22T16:58:03.946Z,66.27
2022-10-22T17:00:30.805Z,66.29
2022-10-22T17:02:57.729Z,66.48
2022-10-22T17:05:24.447Z,66.28
2022-10-22T17:07:51.615Z,66.45
2022-10-22T17:10:20.603Z,66.38
2022-10-22T17:12:48.971Z,66.23
2022-10-22T17:15:15.907Z,66.49
2022-10-22T17:17:43.106Z,66.28
2022-10-22T17:20:11.663Z,66.44
2022-10-22T17:22:38.587Z,66.04
2022-10-22T17:25:15.912Z,66.70
2022-10-22T17:27:44.336Z,66.52
2022-10-22T17:30:24.817Z,66.17
2022-10-22T17:32:54.321Z,66.57
2022-10-22T17:35:21.514Z,66.08
2022-10-22T17:37:48.387Z,65.65
2022-10-22T17:40:15.863Z,66.19
2022-10-22T17:42:45.535Z,66.41
2022-10-22T17:45:12.422Z,66.00
2022-10-22T17:47:39.630Z,66.32
2022-10-22T17:50:06.955Z,65.34
2022-10-22T17:52:33.627Z,65.79
2022-10-22T17:55:00.664Z,66.04
2022-10-22T17:57:27.672Z,65.57
2022-10-22T17:59:54.427Z,66.13
2022-10-22T18:02:21.094Z,65.94
2022-10-22T18:04:52.339Z,66.14
2022-10-22T18:07:20.696Z,65.78
2022-10-22T18:09:47.814Z,66.17
2022-10-22T18:12:15.019Z,65.71
2022-10-22T18:14:41.779Z,66.39
2022-10-22T18:17:08.498Z,66.44
2022-10-22T18:19:35.980Z,66.91
2022-10-22T18:22:03.491Z,66.61
2022-10-22T18:24:30.078Z,66.76
2022-10-22T18:26:56.834Z,67.02
2022-10-22T18:29:23.514Z,67.16
2022-10-22T18:31:53.243Z,66.29
2022-10-22T18:34:23.001Z,66.82
2022-10-22T18:36:53.273Z,66.39
2022-10-22T18:39:20.079Z,66.62
2022-10-22T18:41:47.409Z,67.46
2022-10-22T18:44:15.494Z,67.30
2022-10-22T18:46:45.335Z,66.81
2022-10-22T18:49:19.658Z,67.07
2022-10-22T18:51:52.456Z,66.08
2022-10-22T18:54:23.622Z,65.79
2022-10-22T18:56:51.050Z,65.72
2022-10-22T18:59:24.904Z,65.67
2022-10-22T19:01:55.989Z,65.87
2022-10-22T19:04:23.185Z,65.05
2022-10-22T19:06:50.557Z,64.50
2022-10-22T19:09:17.845Z,64.05
2022-10-22T19:11:45.640Z,65.27
2022-10-22T19:14:13.483Z,64.72
2022-10-22T19:16:40.193Z,65.33
2022-10-22T19:19:08.089Z,64.98
2022-10-22T19:21:34.909Z,65.64
2022-10-22T19:24:02.215Z,64.59
2022-10-22T19:26:30.715Z,65.36
2022-10-22T19:28:58.864Z,66.04
2022-10-22T19:31:27.401Z,65.80
2022-10-22T19:33:57.136Z,66.04
2022-10-22T19:36:25.326Z,66.16
2022-10-22T19:38:52.022Z,66.79
2022-10-22T19:41:21.731Z,66.86
2022-10-22T19:43:50.820Z,67.55
2022-10-22T19:46:18.952Z,67.02
2022-10-22T19:51:15.822Z,67.94
2022-10-22T19:53:43.030Z,68.15
2022-10-22T19:56:11.691Z,67.39
2022-10-22T19:58:39.362Z,66.66
2022-10-22T20:01:12.853Z,68.14
2022-10-22T20:03:40.226Z,67.06
2022-10-22T20:06:09.208Z,66.80
2022-10-22T20:08:38.409Z,66.90
2022-10-22T20:11:07.129Z,67.29
2022-10-22T20:13:35.412Z,66.44
2022-10-22T20:16:03.315Z,65.99
2022-10-22T20:18:30.174Z,66.62
2022-10-22T20:20:56.961Z,66.40
2022-10-22T20:23:24.162Z,65.74
2022-10-22T20:25:51.216Z,62.54
2022-10-22T20:28:18.717Z,61.65
2022-10-22T20:30:46.434Z,61.74
2022-10-22T20:33:16.031Z,63.02
2022-10-22T20:35:42.825Z,64.90
2022-10-22T20:38:13.719Z,64.03
2022-10-22T20:40:40.459Z,64.18
2022-10-22T20:43:10.511Z,62.91
2022-10-22T20:45:39.055Z,62.19
2022-10-22T20:48:06.109Z,61.30
2022-10-22T20:50:33.404Z,60.88
2022-10-22T20:53:00.144Z,61.45
2022-10-22T20:55:27.684Z,62.24
2022-10-22T20:57:54.346Z,65.61
2022-10-22T21:00:21.182Z,66.30
2022-10-22T21:02:47.867Z,67.05
2022-10-22T21:05:14.512Z,66.14
2022-10-22T21:07:42.464Z,63.39
2022-10-22T21:10:09.792Z,62.35
2022-10-22T21:12:36.427Z,61.85
2022-10-22T21:15:04.156Z,62.04
2022-10-22T21:17:31.359Z,61.95
2022-10-22T21:19:57.955Z,61.68
2022-10-22T21:22:25.059Z,63.51
2022-10-22T21:24:52.431Z,62.34
2022-10-22T21:27:21.731Z,63.37
2022-10-22T21:29:49.641Z,64.73
2022-10-22T21:32:16.176Z,64.58
2022-10-22T21:34:42.654Z,66.89
2022-10-22T21:37:09.355Z,66.67
2022-10-22T21:39:41.105Z,67.12
2022-10-22T21:42:09.231Z,66.72
2022-10-22T21:44:35.981Z,67.32
2022-10-22T21:47:03.163Z,67.17
2022-10-22T21:49:29.810Z,65.05
2022-10-22T21:51:56.520Z,64.53
2022-10-22T21:54:23.192Z,63.66
2022-10-22T21:56:50.473Z,64.34
2022-10-22T21:59:17.570Z,64.81
2022-10-22T22:01:44.284Z,65.03
2022-10-22T22:04:10.927Z,64.76
2022-10-22T22:06:37.557Z,64.82
2022-10-22T22:09:04.866Z,64.89
2022-10-22T22:11:32.721Z,65.85
2022-10-22T22:13:59.611Z,65.77
2022-10-22T22:16:31.516Z,67.73
2022-10-22T22:21:31.215Z,69.03
2022-10-22T22:23:58.836Z,69.47
2022-10-22T22:26:29.680Z,68.67
2022-10-22T22:28:58.487Z,67.16
2022-10-22T22:31:32.204Z,69.15
2022-10-22T22:34:13.295Z,69.59
2022-10-22T22:36:49.605Z,69.94
2022-10-22T22:39:22.681Z,69.03
2022-10-22T22:41:49.888Z,69.22
2022-10-22T22:44:16.834Z,69.78
2022-10-22T22:46:44.455Z,70.28
2022-10-22T22:49:13.259Z,68.59
2022-10-22T22:51:39.855Z,68.31
2022-10-22T22:54:07.271Z,68.86
2022-10-22T22:56:34.705Z,68.61
2022-10-22T22:59:01.535Z,68.84
2022-10-22T23:01:33.817Z,69.75
2022-10-22T23:04:03.719Z,70.19
2022-10-22T23:06:34.804Z,69.24
2022-10-22T23:09:02.664Z,70.13
2022-10-22T23:11:30.734Z,70.20
2022-10-22T23:14:01.370Z,70.02
2022-10-22T23:16:31.418Z,70.72
2022-10-22T23:18:59.886Z,70.30
2022-10-22T23:21:34.025Z,70.90
2022-10-22T23:24:03.980Z,71.19
2022-10-22T23:26:33.153Z,70.31
2022-10-22T23:29:01.657Z,70.88
2022-10-22T23:31:28.878Z,70.53
2022-10-22T23:33:56.229Z,70.80
2022-10-22T23:36:22.938Z,71.73
2022-10-22T23:38:51.748Z,71.44
2022-10-22T23:41:18.621Z,71.70
2022-10-22T23:43:45.435Z,70.99
2022-10-22T23:46:13.648Z,70.78
2022-10-22T23:48:41.022Z,70.65
2022-10-22T23:51:10.252Z,70.85
2022-10-22T23:53:37.275Z,71.23
2022-10-22T23:56:06.869Z,71.96
2022-10-22T23:58:34.298Z,71.93
